createdAt,value
2019-01-08T00:01:41.745Z,99.90
2019-01-08T00:04:09.519Z,99.90
2019-01-08T00:06:37.121Z,99.90
2019-01-08T00:09:04.725Z,99.90
2019-01-08T00:11:31.887Z,99.90
2019-01-08T00:13:58.989Z,99.90
2019-01-08T00:16:26.098Z,99.90
2019-01-08T00:18:53.127Z,99.90
2019-01-08T00:21:20.253Z,99.90
2019-01-08T00:23:47.306Z,99.90
2019-01-08T00:26:14.385Z,99.90
2019-01-08T00:28:43.619Z,99.90
2019-01-08T00:31:10.792Z,99.90
2019-01-08T00:33:37.841Z,99.90
2019-01-08T00:36:05.291Z,99.90
2019-01-08T00:38:32.324Z,99.90
2019-01-08T00:40:59.456Z,99.90
2019-01-08T00:43:26.474Z,99.90
2019-01-08T00:45:53.476Z,99.90
2019-01-08T00:48:20.623Z,99.90
2019-01-08T00:50:47.707Z,99.90
2019-01-08T00:53:14.771Z,99.90
2019-01-08T00:55:43.702Z,99.90
2019-01-08T00:58:12.488Z,99.90
2019-01-08T01:00:39.625Z,99.90
2019-01-08T01:03:06.692Z,99.90
2019-01-08T01:05:33.817Z,99.90
2019-01-08T01:08:00.751Z,99.90
2019-01-08T01:10:29.761Z,99.90
2019-01-08T01:12:56.853Z,99.90
2019-01-08T01:15:23.780Z,99.90
2019-01-08T01:17:50.792Z,99.90
2019-01-08T01:20:17.725Z,99.90
2019-01-08T01:22:44.730Z,99.90
2019-01-08T01:25:13.378Z,99.90
2019-01-08T01:27:41.526Z,99.90
2019-01-08T01:30:08.640Z,99.90
2019-01-08T01:32:35.618Z,99.90
2019-01-08T01:35:02.701Z,99.90
2019-01-08T01:37:29.735Z,99.90
2019-01-08T01:39:56.816Z,99.90
2019-01-08T01:42:23.764Z,99.90
2019-01-08T01:44:50.909Z,99.90
2019-01-08T01:47:17.893Z,99.90
2019-01-08T01:49:44.897Z,99.90
2019-01-08T01:52:12.012Z,99.90
2019-01-08T01:54:39.009Z,99.90
2019-01-08T01:57:06.084Z,99.90
2019-01-08T01:59:33.101Z,99.90
2019-01-08T02:02:00.097Z,99.90
2019-01-08T02:04:27.014Z,99.90
2019-01-08T02:06:54.006Z,99.90
2019-01-08T02:09:21.099Z,99.90
2019-01-08T02:11:48.180Z,99.90
2019-01-08T02:14:15.126Z,99.90
2019-01-08T02:16:42.103Z,99.90
2019-01-08T02:19:09.117Z,99.90
2019-01-08T02:21:36.048Z,99.90
2019-01-08T02:24:03.174Z,99.90
2019-01-08T02:26:31.966Z,99.90
2019-01-08T02:28:59.091Z,99.90
2019-01-08T02:31:26.067Z,99.90
2019-01-08T02:33:53.050Z,99.90
2019-01-08T02:36:20.133Z,99.90
2019-01-08T02:38:47.113Z,99.90
2019-01-08T02:41:14.184Z,99.90
2019-01-08T02:43:41.255Z,99.90
2019-01-08T02:46:08.409Z,99.90
2019-01-08T02:48:35.509Z,99.90
2019-01-08T02:51:02.413Z,99.90
2019-01-08T02:53:29.290Z,99.90
2019-01-08T02:55:56.230Z,99.90
2019-01-08T02:58:23.117Z,99.90
2019-01-08T03:00:50.103Z,99.90
2019-01-08T03:03:16.996Z,99.90
2019-01-08T03:05:45.677Z,99.90
2019-01-08T03:08:12.617Z,99.90
2019-01-08T03:10:39.556Z,99.90
2019-01-08T03:13:06.533Z,99.90
2019-01-08T03:15:33.573Z,99.90
2019-01-08T03:18:00.474Z,99.90
2019-01-08T03:20:27.455Z,99.90
2019-01-08T03:22:54.481Z,99.90
2019-01-08T03:25:21.379Z,99.90
2019-01-08T03:27:48.421Z,99.90
2019-01-08T03:30:15.420Z,99.90
2019-01-08T03:32:42.387Z,99.90
2019-01-08T03:35:09.369Z,99.90
2019-01-08T03:37:36.433Z,99.90
2019-01-08T03:40:03.998Z,99.90
2019-01-08T03:42:30.970Z,99.90
2019-01-08T03:44:57.980Z,99.90
2019-01-08T03:47:24.932Z,99.90
2019-01-08T03:49:51.813Z,99.90
2019-01-08T03:52:18.720Z,99.90
2019-01-08T03:54:45.646Z,99.90
2019-01-08T03:57:12.592Z,99.90
2019-01-08T03:59:42.050Z,99.90
2019-01-08T04:02:08.465Z,99.90
2019-01-08T04:04:35.454Z,99.90
2019-01-08T04:07:02.501Z,99.90
2019-01-08T04:09:29.474Z,99.90
2019-01-08T04:11:56.712Z,99.90
2019-01-08T04:14:23.711Z,99.90
2019-01-08T04:16:50.652Z,99.90
2019-01-08T04:19:17.688Z,99.90
2019-01-08T04:21:44.639Z,99.20
2019-01-08T04:24:11.717Z,99.20
2019-01-08T04:26:38.596Z,99.20
2019-01-08T04:29:05.510Z,99.30
2019-01-08T04:31:32.541Z,99.30
2019-01-08T04:33:59.488Z,99.20
2019-01-08T04:36:26.381Z,98.30
2019-01-08T04:38:53.348Z,98.50
2019-01-08T04:41:20.262Z,98.40
2019-01-08T04:43:47.201Z,97.50
2019-01-08T04:46:15.921Z,97.10
2019-01-08T04:48:43.902Z,97.10
2019-01-08T04:51:10.830Z,96.50
2019-01-08T04:53:39.505Z,96.70
2019-01-08T04:56:06.517Z,96.50
2019-01-08T04:58:33.586Z,97.00
2019-01-08T05:01:00.466Z,96.70
2019-01-08T05:03:29.235Z,96.00
2019-01-08T05:05:56.268Z,96.20
2019-01-08T05:08:23.236Z,96.10
2019-01-08T05:10:51.321Z,96.70
2019-01-08T05:13:20.069Z,96.20
2019-01-08T05:15:46.946Z,95.40
2019-01-08T05:18:13.933Z,95.50
2019-01-08T05:20:42.716Z,95.40
2019-01-08T05:23:09.615Z,95.40
2019-01-08T05:25:36.569Z,95.20
2019-01-08T05:28:03.466Z,94.90
2019-01-08T05:30:30.525Z,94.50
2019-01-08T05:32:57.597Z,94.60
2019-01-08T05:35:26.367Z,95.10
2019-01-08T05:37:53.325Z,94.60
2019-01-08T05:40:20.677Z,94.60
2019-01-08T05:42:48.825Z,94.50
2019-01-08T05:45:15.893Z,95.00
2019-01-08T05:47:42.944Z,95.00
2019-01-08T05:50:09.822Z,94.60
2019-01-08T05:52:36.777Z,94.60
2019-01-08T05:55:03.981Z,94.40
2019-01-08T05:57:30.884Z,93.70
2019-01-08T05:59:57.882Z,93.80
2019-01-08T06:02:24.874Z,93.70
2019-01-08T06:04:51.858Z,93.60
2019-01-08T06:07:18.785Z,93.70
2019-01-08T06:09:45.826Z,93.80
2019-01-08T06:12:12.796Z,94.10
2019-01-08T06:14:39.733Z,94.50
2019-01-08T06:17:06.636Z,94.40
2019-01-08T06:19:33.615Z,94.10
2019-01-08T06:22:00.565Z,93.60
2019-01-08T06:24:27.550Z,93.70
2019-01-08T06:26:54.451Z,93.50
2019-01-08T06:29:21.402Z,93.30
2019-01-08T06:31:48.384Z,93.30
2019-01-08T06:34:15.248Z,93.20
2019-01-08T06:36:42.194Z,93.00
2019-01-08T06:39:09.222Z,93.00
2019-01-08T06:41:36.181Z,93.10
2019-01-08T06:44:04.225Z,93.30
2019-01-08T06:46:31.174Z,93.40
2019-01-08T06:48:58.121Z,93.40
2019-01-08T06:51:26.173Z,93.40
2019-01-08T06:53:53.163Z,93.40
2019-01-08T06:56:20.242Z,93.20
2019-01-08T06:58:47.199Z,92.90
2019-01-08T07:01:14.233Z,92.80
2019-01-08T07:03:41.277Z,92.80
2019-01-08T07:06:08.233Z,92.50
2019-01-08T07:08:35.333Z,92.60
2019-01-08T07:11:02.253Z,92.50
2019-01-08T07:13:29.289Z,92.20
2019-01-08T07:15:56.505Z,92.30
2019-01-08T07:18:23.589Z,92.30
2019-01-08T07:20:50.659Z,92.20
2019-01-08T07:23:17.626Z,92.40
2019-01-08T07:25:44.614Z,92.50
2019-01-08T07:28:11.741Z,92.60
2019-01-08T07:30:41.627Z,92.40
2019-01-08T07:33:07.634Z,92.40
2019-01-08T07:35:35.127Z,92.40
2019-01-08T07:38:02.085Z,92.50
2019-01-08T07:40:29.221Z,92.20
2019-01-08T07:42:56.122Z,92.10
2019-01-08T07:45:23.040Z,92.00
2019-01-08T07:47:50.072Z,92.10
2019-01-08T07:50:17.049Z,92.30
2019-01-08T07:52:43.932Z,92.10
2019-01-08T07:55:10.879Z,92.00
2019-01-08T07:57:37.777Z,91.90
2019-01-08T08:00:05.373Z,92.00
2019-01-08T08:02:32.298Z,92.10
2019-01-08T08:04:59.187Z,91.90
2019-01-08T08:07:26.316Z,91.80
2019-01-08T08:09:53.194Z,92.00
2019-01-08T08:12:20.243Z,91.90
2019-01-08T08:14:47.229Z,91.60
2019-01-08T08:17:14.265Z,91.60
2019-01-08T08:19:41.244Z,91.60
2019-01-08T08:22:08.190Z,91.20
2019-01-08T08:24:35.269Z,91.30
2019-01-08T08:27:02.273Z,91.20
2019-01-08T08:29:29.220Z,91.10
2019-01-08T08:31:56.243Z,90.70
2019-01-08T08:34:23.225Z,90.50
2019-01-08T08:36:50.253Z,89.90
2019-01-08T08:39:17.329Z,89.30
2019-01-08T08:41:44.262Z,89.90
2019-01-08T08:44:11.243Z,89.70
2019-01-08T08:46:38.388Z,89.30
2019-01-08T08:49:06.022Z,89.80
2019-01-08T08:51:33.085Z,90.00
2019-01-08T08:54:00.210Z,90.20
2019-01-08T08:56:27.136Z,90.00
2019-01-08T08:58:54.571Z,90.40
2019-01-08T09:01:23.065Z,90.70
2019-01-08T09:03:50.213Z,90.70
2019-01-08T09:06:17.213Z,91.60
2019-01-08T09:08:44.258Z,91.60
2019-01-08T09:11:11.151Z,91.60
2019-01-08T09:13:38.168Z,91.80
2019-01-08T09:16:05.097Z,91.70
2019-01-08T09:18:33.710Z,91.70
2019-01-08T09:21:00.753Z,96.90
2019-01-08T09:23:27.855Z,93.40
2019-01-08T09:25:54.833Z,90.30
2019-01-08T09:28:21.797Z,87.00
2019-01-08T09:30:48.761Z,88.80
2019-01-08T09:33:15.795Z,90.10
2019-01-08T09:35:42.663Z,90.70
2019-01-08T09:38:11.395Z,90.90
2019-01-08T09:40:38.577Z,91.40
2019-01-08T09:43:05.618Z,92.10
2019-01-08T09:45:32.626Z,91.80
2019-01-08T09:47:59.572Z,92.40
2019-01-08T09:50:28.361Z,92.70
2019-01-08T09:52:56.605Z,93.00
2019-01-08T09:55:23.532Z,92.50
2019-01-08T09:57:50.525Z,92.30
2019-01-08T10:00:17.569Z,92.80
2019-01-08T10:02:44.626Z,92.60
2019-01-08T10:05:11.669Z,92.60
2019-01-08T10:07:38.611Z,92.60
2019-01-08T10:10:06.489Z,92.40
2019-01-08T10:12:33.543Z,92.40
2019-01-08T10:15:00.623Z,92.90
2019-01-08T10:17:27.542Z,93.10
2019-01-08T10:19:54.561Z,93.00
2019-01-08T10:22:21.569Z,92.50
2019-01-08T10:24:48.568Z,92.50
2019-01-08T10:27:15.501Z,92.40
2019-01-08T10:29:42.470Z,92.00
2019-01-08T10:32:09.502Z,91.80
2019-01-08T10:34:36.574Z,92.10
2019-01-08T10:37:03.542Z,92.20
2019-01-08T10:39:30.547Z,92.20
2019-01-08T10:41:57.492Z,91.90
2019-01-08T10:44:24.494Z,92.20
2019-01-08T10:46:51.482Z,92.50
2019-01-08T10:49:18.411Z,91.80
2019-01-08T10:51:45.405Z,92.20
2019-01-08T10:54:12.287Z,92.60
2019-01-08T10:56:39.359Z,92.80
2019-01-08T10:59:07.753Z,92.70
2019-01-08T11:01:40.467Z,92.60
2019-01-08T11:04:03.970Z,92.30
2019-01-08T11:06:31.187Z,92.60
2019-01-08T11:08:58.433Z,92.60
2019-01-08T11:11:25.497Z,93.20
2019-01-08T11:13:52.479Z,93.20
2019-01-08T11:16:19.537Z,93.30
2019-01-08T11:18:46.433Z,93.80
2019-01-08T11:21:13.644Z,93.70
2019-01-08T11:23:40.729Z,94.00
2019-01-08T11:26:07.852Z,93.90
2019-01-08T11:28:34.890Z,94.30
2019-01-08T11:31:01.867Z,94.60
2019-01-08T11:33:28.918Z,94.60
2019-01-08T11:35:55.813Z,94.60
2019-01-08T11:38:22.754Z,94.50
2019-01-08T11:40:49.692Z,93.80
2019-01-08T11:43:18.513Z,94.60
2019-01-08T11:45:45.494Z,95.20
2019-01-08T11:48:12.541Z,95.30
2019-01-08T11:50:39.426Z,94.60
2019-01-08T11:53:06.362Z,94.50
2019-01-08T11:55:33.349Z,94.40
2019-01-08T11:58:00.313Z,93.90
2019-01-08T12:00:27.316Z,94.20
2019-01-08T12:02:55.696Z,94.50
2019-01-08T12:05:22.606Z,94.70
2019-01-08T12:07:49.768Z,94.30
2019-01-08T12:10:17.003Z,94.30
2019-01-08T12:12:43.933Z,94.60
2019-01-08T12:15:10.824Z,94.50
2019-01-08T12:17:37.812Z,93.80
2019-01-08T12:20:07.053Z,94.20
2019-01-08T12:22:40.771Z,94.50
2019-01-08T12:25:03.479Z,94.40
2019-01-08T12:27:30.505Z,94.50
2019-01-08T12:29:57.410Z,94.70
2019-01-08T12:32:24.385Z,93.80
2019-01-08T12:34:51.325Z,94.60
2019-01-08T12:37:18.295Z,95.20
2019-01-08T12:39:45.391Z,94.90
2019-01-08T12:42:12.461Z,95.40
2019-01-08T12:44:39.356Z,94.10
2019-01-08T12:47:06.445Z,94.30
2019-01-08T12:49:33.343Z,94.80
2019-01-08T12:52:01.623Z,94.50
2019-01-08T12:54:28.589Z,95.70
2019-01-08T12:56:55.642Z,95.50
2019-01-08T12:59:22.569Z,95.00
2019-01-08T13:01:49.629Z,95.30
2019-01-08T13:04:16.710Z,94.50
2019-01-08T13:06:43.817Z,94.90
2019-01-08T13:09:10.813Z,94.70
2019-01-08T13:11:38.489Z,95.20
2019-01-08T13:14:07.091Z,95.60
2019-01-08T13:16:35.336Z,94.80
2019-01-08T13:19:02.349Z,95.40
2019-01-08T13:21:29.347Z,95.50
2019-01-08T13:23:56.263Z,95.40
2019-01-08T13:26:23.286Z,94.60
2019-01-08T13:28:50.202Z,94.80
2019-01-08T13:31:17.161Z,94.80
2019-01-08T13:33:44.181Z,94.60
2019-01-08T13:36:11.086Z,94.00
2019-01-08T13:38:38.189Z,94.10
2019-01-08T13:41:05.152Z,93.50
2019-01-08T13:43:32.143Z,94.10
2019-01-08T13:45:59.162Z,93.30
2019-01-08T13:48:26.330Z,93.70
2019-01-08T13:50:53.381Z,93.90
2019-01-08T13:53:20.527Z,93.00
2019-01-08T13:55:47.465Z,92.60
2019-01-08T13:58:15.458Z,92.60
2019-01-08T14:00:42.363Z,92.20
2019-01-08T14:03:09.495Z,92.30
2019-01-08T14:05:36.566Z,92.60
2019-01-08T14:08:03.762Z,92.30
2019-01-08T14:10:30.885Z,92.50
2019-01-08T14:12:57.910Z,92.80
2019-01-08T14:15:25.373Z,91.60
2019-01-08T14:17:54.674Z,91.60
2019-01-08T14:20:21.671Z,92.10
2019-01-08T14:22:48.611Z,91.70
2019-01-08T14:25:15.830Z,92.20
2019-01-08T14:27:42.950Z,92.30
2019-01-08T14:30:10.082Z,92.50
2019-01-08T14:32:40.772Z,92.60
2019-01-08T14:35:07.581Z,93.50
2019-01-08T14:37:34.541Z,94.70
2019-01-08T14:40:01.514Z,95.30
2019-01-08T14:42:29.619Z,95.80
2019-01-08T14:44:58.696Z,95.90
2019-01-08T14:47:26.720Z,96.10
2019-01-08T14:49:53.702Z,96.60
2019-01-08T14:52:20.695Z,96.60
2019-01-08T14:54:50.632Z,96.40
2019-01-08T14:57:17.732Z,96.40
2019-01-08T14:59:45.535Z,96.60
2019-01-08T15:02:12.592Z,96.60
2019-01-08T15:04:39.814Z,95.30
2019-01-08T15:07:06.956Z,94.70
2019-01-08T15:09:33.954Z,94.80
2019-01-08T15:12:01.039Z,94.00
2019-01-08T15:14:28.129Z,94.30
2019-01-08T15:16:55.231Z,94.00
2019-01-08T15:19:22.241Z,93.10
2019-01-08T15:21:49.296Z,92.60
2019-01-08T15:24:16.866Z,92.70
2019-01-08T15:26:44.191Z,92.70
2019-01-08T15:29:11.528Z,92.70
2019-01-08T15:31:39.124Z,93.10
2019-01-08T15:34:09.123Z,93.40
2019-01-08T15:36:36.210Z,92.90
2019-01-08T15:39:05.369Z,93.30
2019-01-08T15:41:32.254Z,93.20
2019-01-08T15:43:59.338Z,93.40
2019-01-08T15:46:26.283Z,93.60
2019-01-08T15:48:53.281Z,93.10
2019-01-08T15:51:20.263Z,92.70
2019-01-08T15:53:47.643Z,92.70
2019-01-08T15:56:14.571Z,92.40
2019-01-08T15:58:41.509Z,92.00
2019-01-08T16:01:08.477Z,92.00
2019-01-08T16:03:35.373Z,92.10
2019-01-08T16:06:02.317Z,91.80
2019-01-08T16:08:29.364Z,91.40
2019-01-08T16:10:56.390Z,91.40
2019-01-08T16:13:23.448Z,91.00
2019-01-08T16:15:50.446Z,91.20
2019-01-08T16:18:17.787Z,91.20
2019-01-08T16:20:45.988Z,91.40
2019-01-08T16:23:12.975Z,91.80
2019-01-08T16:25:40.031Z,92.50
2019-01-08T16:28:07.085Z,92.60
2019-01-08T16:30:34.097Z,93.20
2019-01-08T16:33:01.113Z,93.70
2019-01-08T16:35:29.672Z,93.60
2019-01-08T16:37:56.785Z,93.50
2019-01-08T16:40:23.731Z,93.30
2019-01-08T16:42:50.641Z,93.90
2019-01-08T16:45:19.407Z,94.10
2019-01-08T16:47:46.395Z,93.20
2019-01-08T16:50:13.645Z,93.40
2019-01-08T16:52:40.642Z,93.90
2019-01-08T16:55:07.616Z,94.60
2019-01-08T16:57:34.674Z,94.70
2019-01-08T17:00:02.578Z,94.30
2019-01-08T17:02:29.618Z,94.50
2019-01-08T17:04:56.917Z,93.70
2019-01-08T17:07:24.233Z,94.10
2019-01-08T17:09:51.577Z,94.00
2019-01-08T17:12:18.766Z,93.80
2019-01-08T17:14:47.527Z,94.10
2019-01-08T17:17:19.551Z,94.40
2019-01-08T17:19:46.625Z,94.70
2019-01-08T17:22:13.557Z,94.50
2019-01-08T17:24:40.488Z,94.50
2019-01-08T17:27:09.352Z,93.60
2019-01-08T17:29:36.271Z,92.60
2019-01-08T17:32:03.226Z,92.50
2019-01-08T17:34:30.233Z,93.10
2019-01-08T17:36:57.373Z,92.40
2019-01-08T17:39:25.119Z,92.20
2019-01-08T17:41:54.097Z,91.70
2019-01-08T17:44:21.206Z,91.80
2019-01-08T17:46:48.188Z,91.60
2019-01-08T17:49:15.549Z,92.00
2019-01-08T17:51:42.757Z,92.00
2019-01-08T17:54:09.826Z,91.50
2019-01-08T17:56:38.762Z,91.20
2019-01-08T17:59:11.988Z,91.20
2019-01-08T18:01:51.801Z,91.00
2019-01-08T18:04:18.780Z,91.20
2019-01-08T18:06:45.848Z,90.80
2019-01-08T18:09:13.852Z,90.60
2019-01-08T18:11:40.916Z,90.30
2019-01-08T18:14:09.987Z,90.60
2019-01-08T18:16:37.687Z,90.60
2019-01-08T18:19:05.852Z,90.30
2019-01-08T18:21:34.688Z,90.20
2019-01-08T18:24:04.269Z,90.30
2019-01-08T18:26:31.460Z,90.50
2019-01-08T18:28:58.838Z,89.70
2019-01-08T18:31:26.154Z,89.30
2019-01-08T18:33:54.161Z,89.30
2019-01-08T18:36:21.493Z,89.90
2019-01-08T18:38:48.481Z,88.60
2019-01-08T18:41:15.438Z,87.80
2019-01-08T18:43:42.395Z,88.40
2019-01-08T18:46:09.356Z,89.60
2019-01-08T18:48:36.346Z,88.40
2019-01-08T18:51:03.267Z,89.10
2019-01-08T18:53:31.583Z,89.70
2019-01-08T18:55:58.586Z,88.90
2019-01-08T18:58:25.586Z,89.40
2019-01-08T19:00:52.724Z,87.60
2019-01-08T19:03:19.705Z,87.10
2019-01-08T19:05:46.717Z,85.70
2019-01-08T19:08:13.741Z,85.90
2019-01-08T19:10:41.181Z,85.60
2019-01-08T19:13:08.471Z,84.40
2019-01-08T19:15:35.629Z,84.10
2019-01-08T19:18:02.878Z,84.70
2019-01-08T19:20:30.205Z,83.50
2019-01-08T19:22:57.271Z,83.50
2019-01-08T19:25:24.235Z,83.70
2019-01-08T19:27:51.476Z,83.70
2019-01-08T19:30:18.450Z,84.50
2019-01-08T19:32:45.385Z,86.30
2019-01-08T19:35:12.617Z,86.80
2019-01-08T19:37:39.570Z,86.90
2019-01-08T19:40:07.128Z,88.20
2019-01-08T19:42:34.264Z,88.70
2019-01-08T19:45:01.314Z,89.40
2019-01-08T19:47:28.637Z,90.00
2019-01-08T19:49:55.876Z,90.70
2019-01-08T19:52:22.856Z,91.40
2019-01-08T19:54:49.891Z,91.50
2019-01-08T19:57:17.091Z,92.10
2019-01-08T19:59:44.161Z,93.00
2019-01-08T20:02:11.178Z,93.60
2019-01-08T20:04:38.115Z,94.80
2019-01-08T20:07:05.307Z,95.40
2019-01-08T20:09:35.773Z,95.40
2019-01-08T20:12:03.369Z,95.20
2019-01-08T20:14:31.703Z,96.00
2019-01-08T20:16:58.927Z,95.30
2019-01-08T20:19:26.474Z,95.70
2019-01-08T20:21:53.653Z,96.10
2019-01-08T20:24:21.521Z,95.80
2019-01-08T20:26:48.632Z,95.60
2019-01-08T20:29:15.702Z,95.80
2019-01-08T20:31:43.006Z,95.10
2019-01-08T20:34:10.142Z,95.20
2019-01-08T20:36:37.329Z,95.20
2019-01-08T20:39:07.694Z,94.90
2019-01-08T20:41:34.701Z,94.70
2019-01-08T20:44:02.018Z,94.30
2019-01-08T20:46:29.069Z,93.90
2019-01-08T20:48:56.308Z,93.10
2019-01-08T20:51:23.451Z,92.80
2019-01-08T20:53:50.547Z,92.30
2019-01-08T20:56:17.581Z,92.30
2019-01-08T20:58:44.610Z,92.60
2019-01-08T21:01:11.517Z,92.60
2019-01-08T21:03:38.559Z,92.10
2019-01-08T21:06:05.586Z,92.30
2019-01-08T21:08:32.597Z,92.20
2019-01-08T21:10:59.780Z,91.90
2019-01-08T21:13:26.785Z,92.30
2019-01-08T21:15:53.774Z,92.10
2019-01-08T21:18:20.909Z,92.00
2019-01-08T21:20:47.986Z,91.90
2019-01-08T21:23:15.137Z,92.00
2019-01-08T21:25:42.675Z,92.10
2019-01-08T21:28:09.729Z,93.50
2019-01-08T21:30:36.973Z,94.80
2019-01-08T21:33:03.957Z,95.60
2019-01-08T21:35:30.956Z,95.90
2019-01-08T21:37:58.422Z,94.70
2019-01-08T21:40:29.373Z,94.60
2019-01-08T21:42:56.485Z,95.20
2019-01-08T21:45:23.688Z,94.50
2019-01-08T21:47:50.613Z,94.50
2019-01-08T21:50:17.583Z,94.50
2019-01-08T21:52:44.712Z,93.90
2019-01-08T21:55:13.597Z,93.70
2019-01-08T21:57:40.637Z,93.90
2019-01-08T22:00:08.154Z,94.30
2019-01-08T22:02:36.227Z,94.60
2019-01-08T22:05:03.467Z,94.10
2019-01-08T22:07:30.473Z,94.40
2019-01-08T22:09:57.799Z,94.40
2019-01-08T22:12:24.777Z,94.90
2019-01-08T22:14:51.729Z,94.40
2019-01-08T22:17:18.910Z,94.60
2019-01-08T22:19:46.038Z,94.10
2019-01-08T22:22:13.409Z,94.20
2019-01-08T22:24:40.500Z,93.90
2019-01-08T22:27:07.480Z,94.50
2019-01-08T22:29:34.523Z,94.60
2019-01-08T22:32:01.558Z,94.80
2019-01-08T22:34:28.605Z,94.90
2019-01-08T22:36:55.626Z,93.70
2019-01-08T22:39:22.504Z,93.70
2019-01-08T22:41:50.753Z,93.00
2019-01-08T22:44:17.849Z,94.60
2019-01-08T22:46:44.828Z,96.70
2019-01-08T22:49:12.287Z,97.30
2019-01-08T22:51:39.357Z,97.50
2019-01-08T22:54:07.513Z,97.00
2019-01-08T22:56:34.812Z,97.50
2019-01-08T22:59:02.036Z,97.30
2019-01-08T23:01:31.146Z,97.60
2019-01-08T23:03:58.082Z,97.50
2019-01-08T23:06:25.154Z,97.40
2019-01-08T23:08:52.705Z,97.30
2019-01-08T23:11:19.634Z,96.60
2019-01-08T23:13:46.835Z,96.30
2019-01-08T23:16:14.151Z,96.20
2019-01-08T23:18:41.073Z,95.30
2019-01-08T23:21:08.049Z,94.70
2019-01-08T23:23:35.576Z,94.50
2019-01-08T23:26:04.411Z,94.70
2019-01-08T23:28:32.051Z,95.10
2019-01-08T23:30:59.608Z,94.30
2019-01-08T23:33:26.736Z,94.50
2019-01-08T23:35:53.776Z,94.30
2019-01-08T23:38:20.765Z,93.90
2019-01-08T23:40:47.713Z,93.30
2019-01-08T23:43:14.792Z,93.20
2019-01-08T23:45:41.749Z,93.10
2019-01-08T23:48:08.928Z,93.30
2019-01-08T23:50:36.191Z,93.20
2019-01-08T23:53:08.007Z,93.50
2019-01-08T23:55:57.175Z,93.90
2019-01-08T23:58:26.224Z,94.00
